createdAt,value
2022-11-26T00:02:26.002Z,100484.78
2022-11-26T00:06:34.940Z,100489.16
2022-11-26T00:10:39.499Z,100494.44
2022-11-26T00:14:42.490Z,100502.31
2022-11-26T00:18:45.518Z,100505.94
2022-11-26T00:22:52.616Z,100500.72
2022-11-26T00:26:59.943Z,100513.84
2022-11-26T00:31:05.753Z,100512.19
2022-11-26T00:35:09.458Z,100514.81
2022-11-26T00:39:17.030Z,100514.88
2022-11-26T00:43:21.765Z,100518.41
2022-11-26T00:47:24.811Z,100522.63
2022-11-26T00:51:29.240Z,100520.97
2022-11-26T00:55:35.642Z,100525.34
2022-11-26T00:59:39.965Z,100527.19
2022-11-26T01:03:44.065Z,100530.72
2022-11-26T01:07:47.696Z,100531.81
2022-11-26T01:11:54.297Z,100535.47
2022-11-26T01:16:01.077Z,100539.16
2022-11-26T01:20:05.629Z,100540.91
2022-11-26T01:24:08.901Z,100544.56
2022-11-26T01:28:14.184Z,100547.34
2022-11-26T01:32:18.546Z,100554.59
2022-11-26T01:36:27.536Z,100558.41
2022-11-26T01:40:39.967Z,100563.88
2022-11-26T01:44:44.032Z,100565.06
2022-11-26T01:48:49.836Z,100559.09
2022-11-26T01:52:53.854Z,100572.41
2022-11-26T01:57:00.545Z,100581.28
2022-11-26T02:01:03.580Z,100585.84
2022-11-26T02:05:13.618Z,100585.03
2022-11-26T02:09:17.319Z,100596.50
2022-11-26T02:13:20.695Z,100604.50
2022-11-26T02:17:28.596Z,100599.38
2022-11-26T02:21:37.212Z,100606.47
2022-11-26T02:26:18.200Z,100610.09
2022-11-26T02:30:22.593Z,100610.22
2022-11-26T02:34:37.006Z,100602.41
2022-11-26T02:38:40.836Z,100605.06
2022-11-26T02:42:43.841Z,100609.50
2022-11-26T02:46:50.950Z,100613.97
2022-11-26T02:50:58.027Z,100623.66
2022-11-26T02:55:03.185Z,100627.31
2022-11-26T02:59:06.588Z,100640.50
2022-11-26T03:03:22.919Z,100630.09
2022-11-26T03:07:27.503Z,100635.44
2022-11-26T03:11:31.001Z,100626.03
2022-11-26T03:15:34.041Z,100630.47
2022-11-26T03:19:38.546Z,100641.88
2022-11-26T03:23:41.719Z,100632.25
2022-11-26T03:27:44.869Z,100635.75
2022-11-26T03:31:48.089Z,100647.19
2022-11-26T03:35:52.488Z,100644.59
2022-11-26T03:39:55.541Z,100648.06
2022-11-26T03:43:58.507Z,100653.31
2022-11-26T03:48:01.775Z,100649.75
2022-11-26T03:52:06.711Z,100647.97
2022-11-26T03:56:09.708Z,100649.72
2022-11-26T04:00:14.615Z,100653.25
2022-11-26T04:04:17.907Z,100651.53
2022-11-26T04:08:22.904Z,100663.84
2022-11-26T04:12:27.295Z,100668.22
2022-11-26T04:16:30.407Z,100665.66
2022-11-26T04:20:33.424Z,100663.91
2022-11-26T04:24:38.107Z,100671.75
2022-11-26T04:28:41.472Z,100674.38
2022-11-26T04:32:44.472Z,100680.53
2022-11-26T04:36:47.637Z,100675.25
2022-11-26T04:40:52.055Z,100679.66
2022-11-26T04:44:55.069Z,100684.91
2022-11-26T04:48:58.079Z,100686.72
2022-11-26T04:53:01.347Z,100698.16
2022-11-26T04:57:05.927Z,100711.38
2022-11-26T05:01:09.267Z,100714.03
2022-11-26T05:05:12.718Z,100712.41
2022-11-26T05:09:15.884Z,100722.06
2022-11-26T05:13:20.239Z,100716.81
2022-11-26T05:17:23.229Z,100716.00
2022-11-26T05:21:26.211Z,100730.84
2022-11-26T05:25:29.230Z,100720.38
2022-11-26T05:29:33.665Z,100734.44
2022-11-26T05:33:36.656Z,100727.50
2022-11-26T05:37:39.703Z,100736.28
2022-11-26T05:41:42.928Z,100743.31
2022-11-26T05:45:47.273Z,100744.22
2022-11-26T05:49:50.303Z,100746.00
2022-11-26T05:53:53.160Z,100757.47
2022-11-26T05:57:56.074Z,100760.16
2022-11-26T06:02:00.545Z,100754.91
2022-11-26T06:06:03.963Z,100765.50
2022-11-26T06:10:08.430Z,100766.41
2022-11-26T06:14:11.490Z,100774.34
2022-11-26T06:18:16.332Z,100775.22
2022-11-26T06:22:19.504Z,100777.94
2022-11-26T06:26:22.421Z,100785.94
2022-11-26T06:30:25.340Z,100789.44
2022-11-26T06:34:30.073Z,100793.88
2022-11-26T06:38:33.456Z,100808.88
2022-11-26T06:42:36.534Z,100810.63
2022-11-26T06:46:39.433Z,100818.53
2022-11-26T06:50:43.692Z,100811.59
2022-11-26T06:54:46.539Z,100823.06
2022-11-26T06:58:50.696Z,100832.72
2022-11-26T07:02:53.874Z,100837.22
2022-11-26T07:06:58.276Z,100841.53
2022-11-26T07:11:03.616Z,100847.69
2022-11-26T07:15:07.395Z,100846.03
2022-11-26T07:19:14.352Z,100850.47
2022-11-26T07:23:18.721Z,100863.63
2022-11-26T07:27:22.023Z,100858.50
2022-11-26T07:31:25.375Z,100865.63
2022-11-26T07:35:28.564Z,100877.09
2022-11-26T07:39:33.050Z,100874.59
2022-11-26T07:43:36.439Z,100882.53
2022-11-26T07:47:39.360Z,100883.50
2022-11-26T07:51:42.565Z,100881.81
2022-11-26T07:55:46.841Z,100892.34
2022-11-26T07:59:49.951Z,100902.88
2022-11-26T08:03:53.194Z,100903.00
2022-11-26T08:07:56.236Z,100899.56
2022-11-26T08:12:00.751Z,100899.66
2022-11-26T08:16:03.973Z,100898.88
2022-11-26T08:20:08.300Z,100900.66
2022-11-26T08:24:14.839Z,100903.25
2022-11-26T08:28:19.150Z,100900.78
2022-11-26T08:32:25.301Z,100887.69
2022-11-26T08:36:31.659Z,100897.38
2022-11-26T08:40:34.716Z,100900.06
2022-11-26T08:44:39.567Z,100902.72
2022-11-26T08:48:42.958Z,100910.75
2022-11-26T08:52:46.090Z,100910.91
2022-11-26T08:56:49.038Z,100923.19
2022-11-26T09:00:53.339Z,100919.81
2022-11-26T09:04:56.331Z,100927.81
2022-11-26T09:09:18.014Z,100942.81
2022-11-26T09:13:22.586Z,100941.97
2022-11-26T09:17:26.860Z,100950.78
2022-11-26T09:21:29.979Z,100951.75
2022-11-26T09:25:33.068Z,100953.63
2022-11-26T09:29:36.059Z,100939.72
2022-11-26T09:33:40.461Z,100942.50
2022-11-26T09:37:46.098Z,100935.63
2022-11-26T09:41:58.041Z,100961.19
2022-11-26T09:46:02.074Z,100955.97
2022-11-26T09:50:17.787Z,100957.78
2022-11-26T09:54:23.541Z,100956.94
2022-11-26T09:58:31.319Z,100955.19
2022-11-26T10:02:35.088Z,100964.91
2022-11-26T10:06:51.407Z,100968.47
2022-11-26T10:11:03.778Z,100965.06
2022-11-26T10:15:17.625Z,100952.16
2022-11-26T10:19:27.914Z,100958.38
2022-11-26T10:23:39.025Z,100956.94
2022-11-26T10:27:42.383Z,100960.63
2022-11-26T10:31:47.742Z,100961.59
2022-11-26T10:35:51.645Z,100967.03
2022-11-26T10:40:02.005Z,100963.69
2022-11-26T10:44:30.225Z,100962.84
2022-11-26T10:48:34.661Z,100968.16
2022-11-26T10:52:39.664Z,100967.38
2022-11-26T10:56:47.557Z,100971.84
2022-11-26T11:00:57.867Z,100966.56
2022-11-26T11:05:04.105Z,100971.91
2022-11-26T11:09:25.746Z,100959.69
2022-11-26T11:13:42.364Z,100961.44
2022-11-26T11:17:46.484Z,100957.13
2022-11-26T11:21:49.678Z,100959.75
2022-11-26T11:26:01.406Z,100963.34
2022-11-26T11:30:07.097Z,100949.25
2022-11-26T11:34:14.818Z,100959.81
2022-11-26T11:38:23.809Z,100962.47
2022-11-26T11:42:29.472Z,100960.81
2022-11-26T11:46:55.861Z,100959.19
2022-11-26T11:51:08.232Z,100962.72
2022-11-26T11:55:22.889Z,100961.09
2022-11-26T11:59:58.410Z,100967.34
2022-11-26T12:04:20.876Z,100968.22
2022-11-26T12:08:37.370Z,100973.56
2022-11-26T12:12:44.530Z,100966.63
2022-11-26T12:16:53.735Z,100970.09
2022-11-26T12:21:02.938Z,100964.00
2022-11-26T12:25:15.580Z,100960.50
2022-11-26T12:29:28.457Z,100962.28
2022-11-26T12:33:35.063Z,100962.41
2022-11-26T12:37:42.600Z,100959.00
2022-11-26T12:41:51.488Z,100968.78
2022-11-26T12:45:59.547Z,100974.94
2022-11-26T12:50:16.530Z,100967.03
2022-11-26T12:54:25.916Z,100966.03
2022-11-26T12:58:38.624Z,100972.19
2022-11-26T13:02:44.519Z,100957.22
2022-11-26T13:07:03.952Z,100970.47
2022-11-26T13:11:21.646Z,100971.28
2022-11-26T13:15:33.307Z,100966.03
2022-11-26T13:19:41.958Z,100966.13
2022-11-26T13:23:57.771Z,100966.53
2022-11-26T13:28:15.255Z,100956.22
2022-11-26T13:32:43.687Z,100952.72
2022-11-26T13:37:14.198Z,100959.69
2022-11-26T13:41:30.223Z,100957.91
2022-11-26T13:46:05.726Z,100965.72
2022-11-26T13:50:14.484Z,100973.63
2022-11-26T13:54:22.989Z,100975.34
2022-11-26T13:58:31.572Z,100981.47
2022-11-26T14:02:44.328Z,100983.13
2022-11-26T14:07:21.991Z,100979.59
2022-11-26T14:11:56.871Z,100982.25
2022-11-26T14:16:02.479Z,100985.72
2022-11-26T14:20:10.083Z,100993.66
2022-11-26T14:24:33.073Z,101000.69
2022-11-26T14:28:36.096Z,100997.25
2022-11-26T14:32:42.829Z,101001.69
2022-11-26T14:36:56.093Z,100993.72
2022-11-26T14:41:00.426Z,100998.94
2022-11-26T14:45:05.620Z,100995.34
2022-11-26T14:49:21.272Z,100994.34
2022-11-26T14:53:29.333Z,100990.81
2022-11-26T14:57:42.233Z,100987.25
2022-11-26T15:01:46.913Z,100992.38
2022-11-26T15:05:49.966Z,100987.94
2022-11-26T15:10:03.806Z,100992.25
2022-11-26T15:14:06.848Z,100992.09
2022-11-26T15:18:16.248Z,100992.03
2022-11-26T15:22:23.124Z,100991.97
2022-11-26T15:26:33.199Z,100998.03
2022-11-26T15:30:38.160Z,101005.75
2022-11-26T15:34:42.204Z,101007.47
2022-11-26T15:39:03.061Z,101014.34
2022-11-26T15:43:07.640Z,101018.53
2022-11-26T15:47:20.614Z,101026.28
2022-11-26T15:51:33.779Z,101027.91
2022-11-26T15:55:38.962Z,101029.63
2022-11-26T15:59:48.980Z,101029.53
2022-11-26T16:03:53.762Z,101030.41
2022-11-26T16:07:58.198Z,101042.53
2022-11-26T16:12:02.302Z,101046.88
2022-11-26T16:16:14.640Z,101050.25
2022-11-26T16:20:20.244Z,101047.56
2022-11-26T16:24:29.508Z,101054.44
2022-11-26T16:28:32.565Z,101056.97
2022-11-26T16:32:36.928Z,101053.38
2022-11-26T16:36:44.190Z,101056.00
2022-11-26T16:40:47.216Z,101051.53
2022-11-26T16:44:50.822Z,101056.78
2022-11-26T16:48:55.386Z,101052.25
2022-11-26T16:52:58.391Z,101053.06
2022-11-26T16:57:02.075Z,101057.38
2022-11-26T17:01:05.081Z,101051.19
2022-11-26T17:05:09.916Z,101053.69
2022-11-26T17:09:18.725Z,101050.94
2022-11-26T17:13:21.886Z,101047.31
2022-11-26T17:17:29.315Z,101057.72
2022-11-26T17:21:33.887Z,101062.78
2022-11-26T17:25:36.872Z,101066.13
2022-11-26T17:29:42.795Z,101065.25
2022-11-26T17:33:46.165Z,101059.94
2022-11-26T17:37:50.788Z,101063.28
2022-11-26T17:41:54.185Z,101067.56
2022-11-26T17:45:59.321Z,101062.25
2022-11-26T17:50:02.375Z,101065.63
2022-11-26T17:54:07.060Z,101064.63
2022-11-26T17:58:12.386Z,101063.56
2022-11-26T18:02:15.686Z,101070.50
2022-11-26T18:06:21.378Z,101075.66
2022-11-26T18:10:25.907Z,101070.38
2022-11-26T18:14:29.219Z,101072.03
2022-11-26T18:18:32.219Z,101068.44
2022-11-26T18:22:35.179Z,101071.94
2022-11-26T18:26:41.175Z,101078.94
2022-11-26T18:30:44.676Z,101081.56
2022-11-26T18:34:50.070Z,101080.63
2022-11-26T18:38:53.330Z,101091.13
2022-11-26T18:42:57.894Z,101083.19
2022-11-26T18:47:04.344Z,101098.03
2022-11-26T18:51:10.432Z,101097.88
2022-11-26T18:55:14.908Z,101104.81
2022-11-26T18:59:19.267Z,101099.56
2022-11-26T19:03:22.305Z,101117.81
2022-11-26T19:07:25.354Z,101116.16
2022-11-26T19:11:29.263Z,101116.22
2022-11-26T19:15:34.547Z,101124.03
2022-11-26T19:19:39.416Z,101119.66
2022-11-26T19:23:42.912Z,101121.47
2022-11-26T19:27:45.880Z,101123.19
2022-11-26T19:31:50.469Z,101122.25
2022-11-26T19:35:53.470Z,101130.00
2022-11-26T19:39:56.783Z,101139.63
2022-11-26T19:44:01.410Z,101143.06
2022-11-26T19:48:05.958Z,101147.34
2022-11-26T19:52:08.945Z,101145.47
2022-11-26T19:56:16.348Z,101150.59
2022-11-26T20:00:19.734Z,101153.97
2022-11-26T20:04:27.460Z,101156.50
2022-11-26T20:08:30.678Z,101162.56
2022-11-26T20:12:33.731Z,101164.31
2022-11-26T20:16:37.279Z,101157.06
2022-11-26T20:20:41.899Z,101173.56
2022-11-26T20:24:44.843Z,101164.56
2022-11-26T20:28:47.830Z,101171.50
2022-11-26T20:32:50.852Z,101170.53
2022-11-26T20:36:55.295Z,101168.78
2022-11-26T20:40:58.519Z,101168.81
2022-11-26T20:45:01.521Z,101170.72
2022-11-26T20:49:05.859Z,101173.38
2022-11-26T20:53:10.219Z,101173.50
2022-11-26T20:57:13.217Z,101179.56
2022-11-26T21:01:17.867Z,101172.59
2022-11-26T21:05:21.464Z,101174.31
2022-11-26T21:09:25.952Z,101176.06
2022-11-26T21:13:28.964Z,101178.63
2022-11-26T21:17:32.358Z,101180.31
2022-11-26T21:21:35.521Z,101173.38
2022-11-26T21:25:41.675Z,101175.19
2022-11-26T21:29:46.186Z,101169.03
2022-11-26T21:33:55.183Z,101173.50
2022-11-26T21:37:59.262Z,101185.56
2022-11-26T21:42:03.603Z,101180.31
2022-11-26T21:46:08.563Z,101175.94
2022-11-26T21:50:13.047Z,101177.63
2022-11-26T21:54:16.447Z,101177.63
2022-11-26T21:58:21.341Z,101175.94
2022-11-26T22:02:24.587Z,101189.00
2022-11-26T22:06:28.027Z,101181.13
2022-11-26T22:10:35.945Z,101176.75
2022-11-26T22:14:40.730Z,101179.25
2022-11-26T22:18:45.387Z,101184.38
2022-11-26T22:22:48.540Z,101179.94
2022-11-26T22:26:52.513Z,101169.44
2022-11-26T22:30:57.158Z,101172.94
2022-11-26T22:35:00.119Z,101169.38
2022-11-26T22:39:04.760Z,101165.63
2022-11-26T22:43:07.722Z,101159.44
2022-11-26T22:47:12.276Z,101159.38
2022-11-26T22:51:15.614Z,101151.50
2022-11-26T22:55:18.775Z,101167.13
2022-11-26T22:59:21.751Z,101157.31
2022-11-26T23:03:27.857Z,101154.53
2022-11-26T23:07:31.297Z,101153.63
2022-11-26T23:11:36.458Z,101163.28
2022-11-26T23:15:44.500Z,101157.97
2022-11-26T23:19:49.385Z,101157.88
2022-11-26T23:23:53.178Z,101153.41
2022-11-26T23:27:56.333Z,101157.75
2022-11-26T23:31:59.380Z,101161.13
2022-11-26T23:36:04.428Z,101164.56
2022-11-26T23:40:09.214Z,101162.75
2022-11-26T23:44:12.205Z,101156.63
2022-11-26T23:48:15.204Z,101165.28
2022-11-26T23:52:19.580Z,101153.97
2022-11-26T23:56:25.042Z,101160.13
